Laotto, Indiana
Current Conditions -  °F | °C
As of 7:15 PM on Monday 22 Dec 2014 (Local Time) from KGWB Reporting Station
Moderate Rain Moderate Rain  
Wind Chill: 29°   Ceiling: 4800
Heat Index: 36°   Visibility: 5mi
Dew Point: 32°   Wind: 9mph
Humidity: 87%   Direction: 100°E
Pressure: 29.83"   Gusts: NA
Location:  41.29°N, 85.2°W
Report Text: KGWB 230015Z AUTO 10008KT 5SM RA BKN048 OVC055 02/00 A2983 RMK AO2
Loading
Personal Weather Stations






























Interactive Weather Map New forecast layout! Learn more

10-Day Weather Forecast

Advertisements
Track Severe Weather on mobile